Time;durP1;ratioP1;P1;durP2;ratioP2;P2;SDS_P1;SDS_P2;PMS_P1;PMS_P2;Temp;Humidity;BMP_temperature;BMP_pressure;BME280_temperature;BME280_humidity;BME280_pressure;Samples;Min_cycle;Max_cycle;Signal;HPM_P1;HPM_P2
2023/09/21 00:04:19;;;;;;;11.70;7.80;;;;;;;13.88;83.16;98491.00;225813;1279;138488;-71
2023/09/21 00:09:22;;;;;;;10.40;7.70;;;;;;;13.88;83.46;98489.72;225921;1279;138393;-73
2023/09/21 00:14:24;;;;;;;9.90;7.70;;;;;;;13.88;83.54;98487.11;225931;1276;22570;-72
2023/09/21 00:19:26;;;;;;;10.80;7.60;;;;;;;13.86;83.70;98483.23;225636;1273;137996;-72
2023/09/21 00:24:30;;;;;;;11.10;8.50;;;;;;;13.91;84.29;98479.66;225741;1276;138408;-73
2023/09/21 00:29:32;;;;;;;10.50;7.50;;;;;;;13.96;83.97;98479.61;225808;1269;138462;-72
2023/09/21 00:34:35;;;;;;;10.70;7.20;;;;;;;13.94;83.88;98464.70;225890;1269;139219;-73
2023/09/21 00:39:38;;;;;;;11.20;8.10;;;;;;;13.92;84.13;98465.27;225890;1278;138431;-73
2023/09/21 00:44:40;;;;;;;10.30;8.00;;;;;;;13.95;84.20;98461.54;225931;1274;23068;-75
2023/09/21 00:49:42;;;;;;;11.80;8.20;;;;;;;13.98;84.57;98460.78;225974;1275;138320;-73
2023/09/21 00:54:44;;;;;;;10.50;7.40;;;;;;;14.00;84.49;98459.71;225868;1278;139531;-73
2023/09/21 00:59:46;;;;;;;11.50;8.30;;;;;;;14.02;84.61;98459.33;225893;1276;138423;-72
2023/09/21 01:04:49;;;;;;;9.70;7.30;;;;;;;14.04;84.49;98455.84;225890;1277;139285;-73
2023/09/21 01:09:52;;;;;;;9.50;7.50;;;;;;;14.06;84.63;98448.34;225867;1276;138263;-73
2023/09/21 01:15:08;;;;;;;8.90;6.20;;;;;;;14.07;84.76;98437.50;226008;1280;22547;-73
2023/09/21 01:20:32;;;;;;;11.30;7.00;;;;;;;14.04;84.40;98431.07;226095;1272;25293;-72
2023/09/21 01:25:39;;;;;;;8.20;6.40;;;;;;;14.01;84.53;98428.20;225971;1279;139384;-73
2023/09/21 01:30:41;;;;;;;7.60;6.30;;;;;;;13.99;84.76;98422.24;225911;1275;138135;-73
2023/09/21 01:35:44;;;;;;;8.10;6.50;;;;;;;14.07;85.26;98424.95;225906;1278;138364;-73
2023/09/21 01:40:46;;;;;;;7.50;5.90;;;;;;;14.13;84.93;98423.46;225670;1276;304911;-72
2023/09/21 01:45:49;;;;;;;7.30;5.40;;;;;;;14.15;84.83;98413.27;225925;1279;138266;-72
2023/09/21 01:50:57;;;;;;;9.00;5.60;;;;;;;14.16;84.82;98409.21;226045;1275;22551;-73
2023/09/21 01:55:59;;;;;;;7.80;6.10;;;;;;;14.12;84.65;98406.13;225931;1279;137885;-72
2023/09/21 02:01:03;;;;;;;7.30;6.20;;;;;;;14.15;84.80;98405.45;225926;1276;138219;-73
2023/09/21 02:06:05;;;;;;;7.20;6.40;;;;;;;14.18;84.73;98406.78;225938;1272;138827;-73
2023/09/21 02:11:07;;;;;;;7.60;6.70;;;;;;;14.15;84.72;98398.88;225970;1256;138940;-73
2023/09/21 02:16:10;;;;;;;6.80;5.70;;;;;;;14.11;84.53;98397.36;225971;1278;138315;-72
2023/09/21 02:21:12;;;;;;;7.80;6.00;;;;;;;14.09;84.93;98393.14;225994;1277;138737;-73
2023/09/21 02:26:14;;;;;;;11.00;7.30;;;;;;;14.05;84.62;98387.17;226091;1272;24724;-73
2023/09/21 02:31:16;;;;;;;9.00;7.70;;;;;;;14.00;84.87;98387.95;226010;1278;138697;-73
2023/09/21 02:36:19;;;;;;;10.90;7.60;;;;;;;13.94;84.65;98380.70;225953;1280;138298;-73
2023/09/21 02:41:23;;;;;;;10.60;7.80;;;;;;;13.85;84.73;98377.80;225942;1280;138590;-73
2023/09/21 02:46:26;;;;;;;11.00;8.10;;;;;;;13.78;85.00;98373.38;225858;1275;138529;-73
2023/09/21 02:51:28;;;;;;;13.10;8.70;;;;;;;13.75;85.18;98373.85;225976;1275;138470;-73
2023/09/21 02:56:30;;;;;;;11.50;9.20;;;;;;;13.72;85.29;98369.09;226094;1272;22548;-73
2023/09/21 03:01:34;;;;;;;12.00;9.40;;;;;;;13.63;85.31;98362.71;225990;1272;138088;-73
2023/09/21 03:06:37;;;;;;;11.00;8.80;;;;;;;13.53;85.44;98361.38;225998;1272;138759;-73
2023/09/21 03:11:39;;;;;;;12.30;10.00;;;;;;;13.48;85.85;98362.54;225943;1276;138492;-73
2023/09/21 03:16:43;;;;;;;10.30;9.20;;;;;;;13.52;86.31;98360.85;226029;1275;138689;-73
2023/09/21 03:21:46;;;;;;;13.00;10.20;;;;;;;13.56;86.45;98361.36;225994;1276;138516;-72
2023/09/21 03:26:50;;;;;;;13.10;10.60;;;;;;;13.58;86.30;98358.07;225931;1278;22609;-73
2023/09/21 03:31:55;;;;;;;11.40;9.80;;;;;;;13.51;86.23;98352.38;225957;1275;138226;-73
2023/09/21 03:36:58;;;;;;;13.90;10.10;;;;;;;13.46;86.28;98350.42;225977;1275;139175;-72
2023/09/21 03:42:00;;;;;;;11.40;9.60;;;;;;;13.44;86.57;98349.04;225986;1278;138659;-73
2023/09/21 03:47:03;;;;;;;12.50;9.10;;;;;;;13.45;86.87;98347.89;225964;1279;138559;-72
2023/09/21 03:52:06;;;;;;;11.70;8.70;;;;;;;13.46;86.63;98340.45;226006;1276;138434;-73
2023/09/21 03:57:11;;;;;;;10.10;7.90;;;;;;;13.43;86.65;98336.67;225948;1279;138619;-73
2023/09/21 04:02:14;;;;;;;9.40;7.80;;;;;;;13.40;86.53;98333.19;226074;1277;23634;-72
2023/09/21 04:07:17;;;;;;;11.00;8.10;;;;;;;13.38;86.81;98330.95;225967;1276;138181;-72
2023/09/21 04:12:19;;;;;;;13.10;8.40;;;;;;;13.38;86.93;98326.22;225910;1277;139511;-72
2023/09/21 04:17:21;;;;;;;9.20;7.30;;;;;;;13.38;86.95;98332.23;225794;1279;138465;-72
2023/09/21 04:22:23;;;;;;;10.20;7.60;;;;;;;13.36;86.83;98322.40;225679;1272;138370;-72
2023/09/21 04:27:25;;;;;;;10.20;7.40;;;;;;;13.36;86.92;98326.65;225643;1272;138890;-72
2023/09/21 04:32:28;;;;;;;10.60;7.30;;;;;;;13.32;86.70;98323.30;225863;1275;22574;-73
2023/09/21 04:37:30;;;;;;;10.30;7.70;;;;;;;13.28;86.64;98323.95;225742;1280;138209;-72
2023/09/21 04:42:34;;;;;;;9.60;7.80;;;;;;;13.25;86.90;98318.20;225769;1272;138419;-71
2023/09/21 04:47:40;;;;;;;12.30;7.50;;;;;;;13.23;86.91;98317.73;225926;1279;138851;-73
2023/09/21 04:52:43;;;;;;;13.80;7.90;;;;;;;13.25;87.01;98314.82;225683;1275;138546;-73
2023/09/21 04:57:47;;;;;;;14.30;9.00;;;;;;;13.30;87.18;98314.10;225685;1273;138226;-73
2023/09/21 05:02:49;;;;;;;11.30;7.80;;;;;;;13.35;87.18;98311.98;225790;1277;23103;-73
2023/09/21 05:07:55;;;;;;;11.40;8.20;;;;;;;13.42;87.33;98312.14;225920;1275;139313;-72
2023/09/21 05:12:57;;;;;;;9.70;7.20;;;;;;;13.49;87.19;98311.52;226011;1276;138258;-74
2023/09/21 05:17:59;;;;;;;13.60;8.20;;;;;;;13.64;87.65;98306.72;226029;1279;139033;-73
2023/09/21 05:23:03;;;;;;;10.00;7.70;;;;;;;13.83;87.97;98303.10;225886;1272;138435;-73
2023/09/21 05:28:05;;;;;;;8.20;6.80;;;;;;;14.03;87.68;98300.96;225999;1278;138621;-74
2023/09/21 05:33:07;;;;;;;12.20;7.60;;;;;;;14.14;87.42;98302.22;225973;1277;138308;-74
2023/09/21 05:38:10;;;;;;;11.10;7.00;;;;;;;14.25;87.39;98302.66;226072;1278;22548;-73
2023/09/21 05:43:13;;;;;;;10.30;7.60;;;;;;;14.41;87.61;98300.47;225461;1279;139308;-73
2023/09/21 05:48:17;;;;;;;10.80;7.00;;;;;;;14.66;87.98;98304.16;225504;1272;138527;-73
2023/09/21 05:53:20;;;;;;;8.40;6.10;;;;;;;14.89;87.66;98299.73;225533;1272;138583;-73
2023/09/21 05:58:22;;;;;;;8.00;6.00;;;;;;;15.12;87.23;98297.23;225662;1265;138368;-73
2023/09/21 06:03:26;;;;;;;8.30;6.00;;;;;;;15.33;87.01;98301.51;225448;1265;138457;-75
2023/09/21 06:08:29;;;;;;;9.00;5.70;;;;;;;15.52;86.91;98296.16;225291;1265;25562;-74
2023/09/21 06:13:32;;;;;;;10.00;6.50;;;;;;;15.76;86.82;98287.81;225366;1267;138063;-74
2023/09/21 06:18:35;;;;;;;7.00;5.30;;;;;;;16.01;86.72;98291.27;225363;1260;138354;-74
2023/09/21 06:23:37;;;;;;;7.60;5.20;;;;;;;16.28;86.56;98289.28;225448;1258;138991;-74
2023/09/21 06:28:39;;;;;;;6.90;4.40;;;;;;;16.49;85.74;98287.13;225604;1268;138250;-73
2023/09/21 06:33:42;;;;;;;6.70;4.50;;;;;;;16.70;85.71;98286.31;225574;1268;138181;-74
2023/09/21 06:38:45;;;;;;;7.10;5.20;;;;;;;16.92;85.37;98283.68;225426;1266;23014;-76
2023/09/21 06:43:47;;;;;;;6.90;4.90;;;;;;;17.11;85.08;98282.81;225222;1256;138468;-74
2023/09/21 06:48:49;;;;;;;8.90;4.80;;;;;;;17.36;85.01;98276.64;225397;1266;138336;-74
2023/09/21 06:53:51;;;;;;;5.50;4.70;;;;;;;17.67;84.61;98274.23;225666;1262;138237;-74
2023/09/21 06:58:53;;;;;;;6.20;4.60;;;;;;;17.93;83.83;98273.30;225606;1262;138391;-74
2023/09/21 07:03:55;;;;;;;7.70;4.70;;;;;;;18.17;83.53;98271.31;225631;1256;138269;-74
2023/09/21 07:08:57;;;;;;;4.70;3.90;;;;;;;18.38;82.69;98267.38;225740;1268;22553;-74
2023/09/21 07:13:59;;;;;;;4.90;3.70;;;;;;;18.59;82.43;98269.82;225624;1268;137988;-74
2023/09/21 07:19:02;;;;;;;5.60;3.20;;;;;;;18.84;82.26;98273.29;225412;1257;138474;-74
2023/09/21 07:24:07;;;;;;;7.80;3.60;;;;;;;19.16;82.06;98265.16;225520;1272;138238;-74
2023/09/21 07:29:10;;;;;;;3.10;2.40;;;;;;;19.47;81.38;98259.98;225394;1256;138250;-74
2023/09/21 07:34:12;;;;;;;6.90;3.40;;;;;;;19.81;80.62;98259.67;225500;1256;137660;-75
2023/09/21 07:39:14;;;;;;;6.10;3.10;;;;;;;20.15;79.64;98262.58;225628;1257;138254;-75
2023/09/21 07:44:16;;;;;;;3.40;2.60;;;;;;;20.41;78.73;98258.02;225518;1262;22558;-75
2023/09/21 07:49:18;;;;;;;4.10;2.40;;;;;;;20.62;77.86;98256.25;225411;1278;139015;-75
2023/09/21 07:54:21;;;;;;;6.30;2.70;;;;;;;20.80;77.31;98253.80;225430;1272;138186;-75
2023/09/21 07:59:23;;;;;;;5.00;2.50;;;;;;;20.98;76.65;98246.89;225416;1272;138514;-75
2023/09/21 08:04:28;;;;;;;2.90;2.30;;;;;;;21.19;76.36;98242.39;225373;1272;138381;-74
2023/09/21 08:09:32;;;;;;;3.70;2.30;;;;;;;21.44;75.82;98239.96;225595;1272;138224;-75
2023/09/21 08:14:34;;;;;;;3.30;2.40;;;;;;;21.63;75.15;98237.71;225666;1275;22587;-75
2023/09/21 08:19:37;;;;;;;2.70;2.00;;;;;;;21.79;74.52;98233.10;225703;1273;138023;-75
2023/09/21 08:24:41;;;;;;;7.00;2.80;;;;;;;21.98;73.98;98224.16;225640;1277;138202;-74
2023/09/21 08:29:44;;;;;;;4.00;2.20;;;;;;;22.19;73.46;98216.66;225737;1280;138221;-74
2023/09/21 08:34:46;;;;;;;4.50;2.80;;;;;;;22.33;73.01;98211.52;225512;1275;138413;-74
2023/09/21 08:39:48;;;;;;;3.30;2.60;;;;;;;22.48;72.30;98209.44;225523;1276;138325;-74
2023/09/21 08:44:50;;;;;;;2.90;2.30;;;;;;;22.65;71.63;98208.91;225647;1269;22551;-74
2023/09/21 08:49:52;;;;;;;6.30;2.80;;;;;;;22.76;70.74;98216.65;225368;1275;138087;-74
2023/09/21 08:54:54;;;;;;;3.30;2.70;;;;;;;22.88;70.69;98215.02;225784;1278;137807;-84
2023/09/21 08:59:59;;;;;;;7.10;3.00;;;;;;;23.02;70.02;98212.48;225690;1272;137696;-74
2023/09/21 09:05:06;;;;;;;10.60;3.00;;;;;;;23.16;69.61;98211.54;225531;1275;138133;-77
2023/09/21 09:10:10;;;;;;;3.20;2.20;;;;;;;23.29;69.07;98205.66;225537;1275;137889;-74
2023/09/21 09:15:14;;;;;;;5.90;3.00;;;;;;;23.42;68.91;98200.61;225588;1275;138913;-75
2023/09/21 09:20:17;;;;;;;6.00;3.10;;;;;;;23.58;68.51;98204.42;225727;1269;22595;-74
2023/09/21 09:25:21;;;;;;;3.20;2.60;;;;;;;23.75;68.32;98203.25;225798;1280;137289;-75
2023/09/21 09:30:24;;;;;;;5.00;2.80;;;;;;;23.90;67.65;98197.08;225838;1278;138609;-76
2023/09/21 09:35:27;;;;;;;4.60;2.60;;;;;;;24.03;67.34;98192.71;225602;1278;138068;-76
2023/09/21 09:40:30;;;;;;;5.90;2.90;;;;;;;24.12;66.67;98188.22;225563;1278;137657;-76
2023/09/21 09:45:34;;;;;;;3.80;2.40;;;;;;;24.24;66.51;98189.80;225633;1279;138262;-76
2023/09/21 09:50:41;;;;;;;4.20;2.50;;;;;;;24.36;66.45;98184.48;225642;1268;22627;-76
2023/09/21 09:55:45;;;;;;;3.90;2.50;;;;;;;24.49;66.31;98179.84;225403;1277;138343;-76
2023/09/21 10:00:51;;;;;;;3.60;3.30;;;;;;;24.64;66.21;98178.64;225670;1275;137372;-75
2023/09/21 10:05:54;;;;;;;3.60;2.70;;;;;;;24.80;66.13;98173.20;225751;1272;137685;-73
2023/09/21 10:10:58;;;;;;;6.40;2.80;;;;;;;24.97;65.80;98167.97;225576;1260;137540;-73
2023/09/21 10:16:04;;;;;;;3.20;2.40;;;;;;;25.14;65.41;98164.12;225502;1266;138196;-73
2023/09/21 10:21:22;;;;;;;7.60;3.40;;;;;;;25.28;65.13;98160.16;225924;1275;22540;-73
2023/09/21 10:26:25;;;;;;;3.40;2.60;;;;;;;25.41;64.80;98155.77;225929;1262;22562;-72
2023/09/21 10:31:28;;;;;;;2.80;2.40;;;;;;;25.51;63.65;98148.86;225899;1278;137380;-73
2023/09/21 10:36:31;;;;;;;6.50;3.00;;;;;;;25.57;61.98;98141.87;225949;1278;137545;-72
2023/09/21 10:41:33;;;;;;;7.70;3.70;;;;;;;25.64;60.49;98137.86;225890;1278;137742;-71
2023/09/21 10:46:40;;;;;;;6.20;3.00;;;;;;;25.71;59.28;98134.21;225779;1279;137595;-71
2023/09/21 10:51:43;;;;;;;5.80;3.40;;;;;;;25.75;58.88;98124.71;225617;1278;138027;-72
2023/09/21 10:56:45;;;;;;;4.70;3.10;;;;;;;25.78;58.85;98120.01;225870;1275;22636;-71
2023/09/21 11:01:48;;;;;;;6.70;3.30;;;;;;;25.85;58.36;98112.80;225706;1266;137392;-71
2023/09/21 11:06:51;;;;;;;8.30;3.40;;;;;;;25.92;58.12;98104.48;225778;1278;137528;-72
2023/09/21 11:11:54;;;;;;;4.50;3.20;;;;;;;26.02;58.02;98097.04;225752;1278;138386;-71
2023/09/21 11:16:55;;;;;;;5.40;3.00;;;;;;;26.09;57.73;98086.77;225589;1280;137544;-72
2023/09/21 11:22:01;;;;;;;4.10;3.30;;;;;;;26.15;56.65;98081.95;225566;1276;137812;-72
2023/09/21 11:27:09;;;;;;;5.50;3.20;;;;;;;26.21;56.91;98075.98;225728;1275;23061;-72
2023/09/21 11:32:19;;;;;;;6.20;3.50;;;;;;;26.27;56.25;98067.48;225896;1260;23019;-72
2023/09/21 11:37:21;;;;;;;6.10;3.50;;;;;;;26.30;55.87;98060.83;225760;1280;138318;-72
2023/09/21 11:42:26;;;;;;;4.50;3.00;;;;;;;26.33;55.82;98056.09;225773;1278;137982;-73
2023/09/21 11:47:27;;;;;;;8.10;3.70;;;;;;;26.33;55.14;98049.15;225676;1278;137730;-72
2023/09/21 11:52:31;;;;;;;4.20;3.50;;;;;;;26.36;55.17;98048.13;225630;1278;137632;-72
2023/09/21 11:57:34;;;;;;;7.30;3.10;;;;;;;26.38;55.02;98044.64;225546;1276;137551;-72
2023/09/21 12:02:37;;;;;;;5.40;3.00;;;;;;;26.42;54.50;98035.46;225739;1275;22565;-72
2023/09/21 12:07:41;;;;;;;6.50;3.60;;;;;;;26.45;54.52;98026.55;225667;1272;137290;-72
2023/09/21 12:12:46;;;;;;;7.40;3.40;;;;;;;26.51;54.54;98017.93;225488;1276;137423;-73
2023/09/21 12:17:48;;;;;;;4.20;3.80;;;;;;;26.56;54.04;98010.38;225440;1258;139023;-80
2023/09/21 12:22:50;;;;;;;4.80;4.00;;;;;;;26.60;54.12;98005.60;225236;1272;137624;-72
2023/09/21 12:27:52;;;;;;;6.00;3.80;;;;;;;26.63;53.68;98002.33;225444;1263;137746;-72
2023/09/21 12:32:56;;;;;;;10.40;4.50;;;;;;;26.67;53.58;97998.76;225720;1272;22610;-72
2023/09/21 12:37:58;;;;;;;25.60;5.40;;;;;;;26.71;53.27;97989.55;225762;1273;137487;-72
2023/09/21 12:43:00;;;;;;;8.30;3.60;;;;;;;26.71;52.87;97998.30;225814;1272;137605;-72
2023/09/21 12:48:07;;;;;;;6.00;3.80;;;;;;;26.73;52.93;97989.27;225806;1276;137571;-72
2023/09/21 12:53:10;;;;;;;5.90;3.90;;;;;;;26.74;52.61;97981.42;225656;1278;137648;-72
2023/09/21 12:58:13;;;;;;;9.80;3.70;;;;;;;26.77;53.30;97980.55;225626;1266;137911;-70
2023/09/21 13:03:16;;;;;;;6.50;3.90;;;;;;;26.80;52.96;97976.84;225699;1269;137710;-70
2023/09/21 13:08:19;;;;;;;4.70;3.90;;;;;;;26.79;52.80;97966.18;225816;1260;22540;-71
2023/09/21 13:13:22;;;;;;;4.70;4.30;;;;;;;26.77;52.72;97961.41;225796;1256;137425;-72
2023/09/21 13:18:24;;;;;;;23.40;5.40;;;;;;;26.70;52.51;97959.39;225690;1272;137915;-74
2023/09/21 13:23:26;;;;;;;4.50;3.80;;;;;;;26.63;52.43;97956.86;225300;1263;137749;-75
2023/09/21 13:28:28;;;;;;;7.20;4.30;;;;;;;26.42;52.58;97955.75;225611;1272;137742;-75
2023/09/21 13:33:31;;;;;;;6.20;3.90;;;;;;;26.13;52.61;97951.96;225709;1273;137567;-75
2023/09/21 13:38:33;;;;;;;4.80;4.40;;;;;;;25.84;53.20;97947.59;225376;1263;180078;-76
2023/09/21 13:43:37;;;;;;;5.30;4.10;;;;;;;25.59;53.61;97947.89;225459;1264;137739;-76
2023/09/21 13:48:39;;;;;;;6.10;4.30;;;;;;;25.45;54.30;97945.66;225525;1274;137098;-77
2023/09/21 13:53:41;;;;;;;5.10;4.10;;;;;;;25.44;54.85;97943.13;225412;1273;137744;-72
2023/09/21 13:58:44;;;;;;;5.50;4.30;;;;;;;25.62;55.08;97931.05;225605;1273;137659;-73
2023/09/21 14:03:46;;;;;;;4.40;4.00;;;;;;;25.84;54.98;97925.61;225173;1270;137919;-74
2023/09/21 14:08:49;;;;;;;4.20;3.90;;;;;;;26.00;54.95;97921.10;225251;1276;22563;-73
2023/09/21 14:13:50;;;;;;;4.40;4.00;;;;;;;26.08;54.74;97918.80;225121;1279;137756;-72
2023/09/21 14:18:52;;;;;;;4.60;4.20;;;;;;;26.12;54.77;97920.20;225284;1279;137525;-73
2023/09/21 14:23:54;;;;;;;6.30;4.50;;;;;;;26.17;54.80;97910.27;225339;1266;137520;-73
2023/09/21 14:28:56;;;;;;;6.80;3.60;;;;;;;26.23;54.79;97904.48;225575;1279;137842;-72
2023/09/21 14:33:58;;;;;;;4.50;4.10;;;;;;;26.22;54.65;97906.04;225878;1267;137607;-72
2023/09/21 14:39:00;;;;;;;4.30;4.00;;;;;;;26.12;54.36;97909.27;225954;1279;22548;-73
2023/09/21 14:44:02;;;;;;;4.60;4.20;;;;;;;26.02;54.71;97904.59;225892;1279;137612;-73
2023/09/21 14:49:03;;;;;;;4.30;3.90;;;;;;;25.90;54.75;97897.64;226049;1280;137630;-73
2023/09/21 14:54:06;;;;;;;4.00;3.70;;;;;;;25.82;54.70;97897.52;225765;1280;137815;-72
2023/09/21 14:59:08;;;;;;;4.20;3.70;;;;;;;25.70;55.02;97897.02;226024;1277;137589;-73
2023/09/21 15:04:10;;;;;;;4.10;3.80;;;;;;;25.54;55.13;97899.08;226098;1279;137573;-72
2023/09/21 15:09:14;;;;;;;4.40;4.00;;;;;;;25.32;55.53;97898.52;226076;1277;137696;-73
2023/09/21 15:14:16;;;;;;;5.10;4.00;;;;;;;25.11;55.70;97896.13;226148;1276;22555;-73
2023/09/21 15:19:18;;;;;;;3.60;3.30;;;;;;;24.88;55.62;97896.10;226058;1278;137265;-72
2023/09/21 15:24:20;;;;;;;3.40;3.10;;;;;;;24.67;55.98;97897.50;226053;1275;137516;-73
2023/09/21 15:29:22;;;;;;;3.80;3.30;;;;;;;24.51;56.23;97898.08;225931;1273;137553;-72
2023/09/21 15:34:24;;;;;;;5.70;3.20;;;;;;;24.40;56.24;97897.33;225989;1277;137622;-72
2023/09/21 15:39:26;;;;;;;5.70;3.60;;;;;;;24.31;56.58;97896.15;226004;1280;138213;-73
2023/09/21 15:44:28;;;;;;;4.10;3.10;;;;;;;24.21;56.56;97892.76;226178;1280;22540;-73
2023/09/21 15:49:30;;;;;;;4.80;3.10;;;;;;;24.08;56.66;97896.27;226070;1280;137755;-72
2023/09/21 15:54:32;;;;;;;4.30;2.50;;;;;;;23.98;56.83;97890.57;226030;1276;137567;-73
2023/09/21 15:59:36;;;;;;;3.10;2.40;;;;;;;23.85;56.80;97886.26;226044;1279;137608;-72
2023/09/21 16:04:39;;;;;;;4.30;2.40;;;;;;;23.70;56.75;97881.98;226051;1277;137554;-73
2023/09/21 16:09:41;;;;;;;4.00;2.80;;;;;;;23.52;56.85;97878.41;226045;1276;137693;-73
2023/09/21 16:14:45;;;;;;;5.10;3.10;;;;;;;23.34;56.84;97878.63;225979;1267;22878;-72
2023/09/21 16:19:47;;;;;;;4.40;3.40;;;;;;;23.17;57.11;97875.11;226023;1275;137147;-73
2023/09/21 16:24:49;;;;;;;4.00;3.20;;;;;;;23.02;57.32;97873.70;226020;1273;137427;-73
2023/09/21 16:29:51;;;;;;;4.70;2.50;;;;;;;22.87;57.45;97872.61;226014;1264;137636;-72
2023/09/21 16:34:53;;;;;;;4.40;2.40;;;;;;;22.73;57.68;97867.70;226006;1266;137570;-72
2023/09/21 16:39:55;;;;;;;2.70;2.40;;;;;;;22.62;57.77;97855.77;226004;1270;137561;-73
2023/09/21 16:44:57;;;;;;;2.80;2.50;;;;;;;22.51;57.96;97844.92;226116;1276;22556;-73
2023/09/21 16:49:59;;;;;;;3.50;2.80;;;;;;;22.38;58.19;97839.91;226010;1277;137298;-72
2023/09/21 16:55:01;;;;;;;6.00;2.60;;;;;;;22.29;58.48;97839.36;226015;1276;137446;-73
2023/09/21 17:00:06;;;;;;;4.90;2.90;;;;;;;22.20;58.82;97842.55;225721;1275;137700;-73
2023/09/21 17:05:09;;;;;;;4.40;2.60;;;;;;;22.10;59.02;97838.13;225987;1272;137611;-72
2023/09/21 17:10:11;;;;;;;3.40;2.90;;;;;;;22.00;59.29;97841.60;225840;1274;137581;-73
2023/09/21 17:15:14;;;;;;;4.50;2.70;;;;;;;21.86;59.55;97838.81;225970;1265;137563;-73
2023/09/21 17:20:16;;;;;;;7.40;3.50;;;;;;;21.72;59.84;97831.52;226058;1280;22573;-73
2023/09/21 17:25:18;;;;;;;4.20;3.30;;;;;;;21.56;59.84;97828.23;225986;1270;137247;-73
2023/09/21 17:30:21;;;;;;;4.30;3.10;;;;;;;21.39;60.16;97826.55;226029;1275;137656;-73
2023/09/21 17:35:23;;;;;;;5.30;4.30;;;;;;;21.31;60.62;97824.67;225984;1280;138356;-73
2023/09/21 17:40:25;;;;;;;6.00;4.80;;;;;;;21.30;60.77;97820.92;225904;1276;137524;-74
2023/09/21 17:45:28;;;;;;;6.60;5.90;;;;;;;21.34;61.08;97818.59;225807;1268;137552;-73
2023/09/21 17:50:31;;;;;;;5.90;5.20;;;;;;;21.32;61.10;97819.41;226064;1275;26082;-72
2023/09/21 17:55:34;;;;;;;10.00;5.60;;;;;;;21.29;61.41;97822.23;225952;1276;137346;-73
2023/09/21 18:00:36;;;;;;;5.80;4.90;;;;;;;21.31;61.67;97819.95;225870;1280;137550;-74
2023/09/21 18:05:38;;;;;;;9.40;5.70;;;;;;;21.26;61.68;97821.81;225868;1265;138819;-73
2023/09/21 18:10:40;;;;;;;6.90;6.10;;;;;;;21.21;62.02;97820.84;225948;1277;137552;-72
2023/09/21 18:15:41;;;;;;;5.90;5.30;;;;;;;21.15;62.24;97819.66;225964;1272;137613;-73
2023/09/21 18:20:44;;;;;;;7.00;6.30;;;;;;;21.10;62.37;97817.16;226014;1278;22567;-72
2023/09/21 18:25:47;;;;;;;8.20;6.70;;;;;;;21.01;62.73;97817.88;225813;1278;137504;-74
2023/09/21 18:30:50;;;;;;;8.40;6.50;;;;;;;20.97;62.91;97818.92;225813;1268;138389;-73
2023/09/21 18:35:53;;;;;;;9.60;6.80;;;;;;;20.95;63.09;97820.76;225977;1277;137658;-73
2023/09/21 18:40:55;;;;;;;9.40;6.70;;;;;;;20.87;63.06;97822.80;225946;1279;137787;-72
2023/09/21 18:45:57;;;;;;;7.90;6.40;;;;;;;20.74;63.36;97820.61;225878;1278;137880;-74
2023/09/21 18:50:59;;;;;;;7.50;6.30;;;;;;;20.62;63.47;97828.25;226009;1268;22658;-72
2023/09/21 18:56:06;;;;;;;7.90;6.50;;;;;;;20.50;63.77;97827.65;225891;1278;137035;-73
2023/09/21 19:01:11;;;;;;;8.20;5.90;;;;;;;20.41;63.96;97826.57;225846;1280;138157;-72
2023/09/21 19:06:15;;;;;;;8.60;7.00;;;;;;;20.33;64.02;97824.21;225879;1279;138319;-73
2023/09/21 19:11:18;;;;;;;12.20;6.60;;;;;;;20.25;64.15;97820.75;225853;1277;138293;-73
2023/09/21 19:16:24;;;;;;;10.50;7.10;;;;;;;20.18;64.63;97817.40;225810;1256;139022;-73
2023/09/21 19:21:26;;;;;;;7.30;6.60;;;;;;;20.11;64.66;97819.63;225871;1274;138390;-72
2023/09/21 19:26:28;;;;;;;8.70;6.00;;;;;;;20.01;64.92;97815.02;225953;1266;22572;-73
2023/09/21 19:31:30;;;;;;;7.00;6.30;;;;;;;19.88;65.11;97813.77;225947;1279;138069;-73
2023/09/21 19:36:32;;;;;;;8.80;6.10;;;;;;;19.76;65.37;97815.89;225862;1275;138376;-73
2023/09/21 19:41:34;;;;;;;7.60;5.60;;;;;;;19.64;65.59;97814.67;225880;1268;138754;-73
2023/09/21 19:46:36;;;;;;;6.20;5.60;;;;;;;19.50;65.86;97813.02;225798;1272;138367;-74
2023/09/21 19:51:38;;;;;;;6.40;5.50;;;;;;;19.39;66.29;97809.20;225932;1275;138440;-73
2023/09/21 19:56:42;;;;;;;9.40;6.40;;;;;;;19.32;66.54;97802.00;226028;1274;22543;-73
2023/09/21 20:01:45;;;;;;;8.10;5.90;;;;;;;19.24;66.71;97802.71;225817;1273;137338;-75
2023/09/21 20:06:47;;;;;;;7.20;5.90;;;;;;;19.14;66.94;97792.86;225828;1279;138364;-72
2023/09/21 20:11:50;;;;;;;8.90;6.80;;;;;;;19.06;67.25;97789.90;225852;1280;138693;-72
2023/09/21 20:16:52;;;;;;;9.80;7.20;;;;;;;19.02;67.58;97786.46;225921;1275;137946;-74
2023/09/21 20:21:54;;;;;;;7.50;6.40;;;;;;;18.98;67.60;97786.63;225886;1276;138253;-73
2023/09/21 20:26:56;;;;;;;7.50;6.60;;;;;;;18.94;67.89;97779.93;226026;1278;25300;-73
2023/09/21 20:32:03;;;;;;;7.70;6.70;;;;;;;18.95;68.13;97779.03;225889;1275;138024;-73
2023/09/21 20:37:06;;;;;;;9.90;6.70;;;;;;;18.98;68.28;97773.52;225971;1272;138205;-71
2023/09/21 20:42:08;;;;;;;8.60;6.60;;;;;;;19.00;68.40;97770.99;225889;1272;138754;-72
2023/09/21 20:47:10;;;;;;;8.00;6.80;;;;;;;19.03;68.38;97764.23;225865;1276;138300;-72
2023/09/21 20:52:12;;;;;;;11.60;9.40;;;;;;;19.02;68.44;97759.84;225753;1273;138266;-72
2023/09/21 20:57:14;;;;;;;8.80;7.30;;;;;;;18.96;68.48;97766.23;225821;1277;138830;-70
2023/09/21 21:02:16;;;;;;;7.30;6.60;;;;;;;18.92;68.72;97764.13;225961;1279;22599;-71
2023/09/21 21:07:18;;;;;;;6.80;6.10;;;;;;;18.86;68.95;97759.63;225837;1269;137902;-74
2023/09/21 21:12:21;;;;;;;8.80;6.80;;;;;;;18.78;69.11;97754.27;225882;1279;138388;-73
2023/09/21 21:17:24;;;;;;;8.60;6.00;;;;;;;18.71;69.38;97757.04;225842;1275;138458;-72
2023/09/21 21:22:25;;;;;;;8.00;6.30;;;;;;;18.64;69.59;97748.20;225907;1275;138507;-72
2023/09/21 21:27:27;;;;;;;8.60;6.60;;;;;;;18.56;69.73;97743.34;225887;1276;138450;-72
2023/09/21 21:32:29;;;;;;;6.50;5.80;;;;;;;18.45;69.81;97743.03;226073;1275;24215;-73
2023/09/21 21:37:31;;;;;;;8.10;5.90;;;;;;;18.36;70.23;97746.30;225894;1272;138100;-73
2023/09/21 21:42:33;;;;;;;9.00;6.10;;;;;;;18.29;70.54;97742.30;225910;1280;138161;-73
2023/09/21 21:47:35;;;;;;;8.10;6.60;;;;;;;18.22;70.63;97742.23;225849;1277;138268;-72
2023/09/21 21:52:38;;;;;;;8.80;6.20;;;;;;;18.12;70.85;97738.29;225876;1272;138414;-72
2023/09/21 21:57:40;;;;;;;7.10;6.40;;;;;;;18.00;71.08;97736.05;225766;1276;138258;-72
2023/09/21 22:02:42;;;;;;;9.40;6.70;;;;;;;17.93;71.38;97742.71;225943;1268;22637;-73
2023/09/21 22:07:43;;;;;;;8.30;7.10;;;;;;;17.88;71.71;97742.36;225958;1276;138236;-71
2023/09/21 22:12:48;;;;;;;7.50;6.80;;;;;;;17.80;71.93;97739.59;226005;1272;138265;-72
2023/09/21 22:17:51;;;;;;;8.90;7.10;;;;;;;17.71;72.11;97738.38;225987;1272;138408;-72
2023/09/21 22:22:53;;;;;;;11.80;7.40;;;;;;;17.61;72.36;97734.09;225795;1272;137937;-73
2023/09/21 22:27:55;;;;;;;11.90;7.90;;;;;;;17.57;72.69;97734.95;225851;1272;138442;-73
2023/09/21 22:32:57;;;;;;;9.60;7.40;;;;;;;17.50;72.71;97729.41;225849;1272;22594;-73
2023/09/21 22:37:59;;;;;;;8.70;6.90;;;;;;;17.44;72.90;97722.27;225882;1259;137850;-72
2023/09/21 22:43:15;;;;;;;9.90;7.70;;;;;;;17.45;73.46;97719.08;225837;1268;138334;-73
2023/09/21 22:48:18;;;;;;;9.80;7.80;;;;;;;17.48;73.47;97713.39;225849;1275;138464;-72
2023/09/21 22:53:20;;;;;;;9.20;7.50;;;;;;;17.44;73.62;97708.71;225839;1268;138993;-72
2023/09/21 22:58:22;;;;;;;10.30;7.90;;;;;;;17.39;73.64;97699.15;225814;1275;138928;-72
2023/09/21 23:03:25;;;;;;;10.60;7.20;;;;;;;17.29;73.92;97696.07;225726;1272;138628;-73
2023/09/21 23:08:28;;;;;;;8.00;6.50;;;;;;;17.26;74.04;97693.84;225950;1272;22557;-72
2023/09/21 23:13:33;;;;;;;9.90;6.40;;;;;;;17.25;74.36;97692.51;225846;1278;138273;-72